Hlavní strana
METAR-TAF:

METAR-TAF

Letiště :

Kuvajt, Kuvajt

zeměpisná šířka: 29-13N, zeměpisná délka: 047-59E, výška: 55 m

Aktuální stav počasí

Zpráva byla vytvořena před 20 minutami, v 22:00 UTC
Severoseverovýchodní vítr 7 kt
Teplota 20°C
Vlhkost vzduchu 73%
Tlak 1014 hPa
Viditelnost 10 km a více
Žádná oblačnost pod 1500 m, nevyskytují se cumulonimby.

METAR: OKBK 132200Z 02007KT CAVOK 20/15 Q1014 NOSIG

Čas: 01:20 (22:20 UTC)

Předpověď počasí

Zpráva byla vytvořena před 5 hodinami a 35 minutami, v 16:45 UTC
Předpověď platná od 13 v 18 UTC do 14 v 24 UTC
vítr z různých směrů 3 kt
Viditelnost: 7000 m
Polojasno ve výšce 4000 ft
Oblačno až skoro zataženo ve výšce 8000 ft
Dočasný
od 13 v 18 UTC do 14 v 06 UTC
Severní vítr 8 kt s nárazy do 20 kt
Viditelnost: 3000 m
Skoro jasno ve výšce 2500 ft, Cumulonimbus.
bouřka, déšť

TAF: OKBK 131645Z 1318/1424 VRB03KT 7000 SCT040 BKN080 TEMPO 1318/1406 35008G20KT 3000 TSRA FEW025CB

Stav a předpovědi počasí z více než 4 000 letišť (zprávy METAR a TAF).

Červené a žluté tečky na mapě představují dostupné meteorologické stanice.

Když kurzor umístíte na tečku, zobrazí se název stanice.

Pak kliknutím zobrazíte stav a předpověď počasí.

Chcete-li změnit mapu, kliknutím na zelené tlačítko se znaménkem +mapu přiblížíte, kliknutím na zelené tlačítko se znaménkem – mapu oddálíte a kliknutím na zelené šipky přejdete na sousední mapy.


METAR-TAF: